sensor_id;sensor_type;location;lat;lon;timestamp;P1;durP1;ratioP1;P2;durP2;ratioP2
48199;SDS011;33990;44.602;10.976;2023-05-28T00:00:29;7.43;;;6.18;;
48199;SDS011;33990;44.602;10.976;2023-05-28T00:02:57;7.40;;;6.20;;
48199;SDS011;33990;44.602;10.976;2023-05-28T00:05:25;8.02;;;5.88;;
48199;SDS011;33990;44.602;10.976;2023-05-28T00:07:52;6.00;;;5.35;;
48199;SDS011;33990;44.602;10.976;2023-05-28T00:10:19;9.07;;;6.15;;
48199;SDS011;33990;44.602;10.976;2023-05-28T00:12:47;5.95;;;5.28;;
48199;SDS011;33990;44.602;10.976;2023-05-28T00:15:14;9.05;;;6.10;;
48199;SDS011;33990;44.602;10.976;2023-05-28T00:17:42;7.25;;;6.00;;
48199;SDS011;33990;44.602;10.976;2023-05-28T00:20:09;6.53;;;5.57;;
48199;SDS011;33990;44.602;10.976;2023-05-28T00:22:38;7.28;;;5.88;;
48199;SDS011;33990;44.602;10.976;2023-05-28T00:25:05;6.80;;;5.88;;
48199;SDS011;33990;44.602;10.976;2023-05-28T00:27:33;7.10;;;6.05;;
48199;SDS011;33990;44.602;10.976;2023-05-28T00:30:01;7.28;;;5.35;;
48199;SDS011;33990;44.602;10.976;2023-05-28T00:32:28;8.77;;;5.68;;
48199;SDS011;33990;44.602;10.976;2023-05-28T00:34:56;6.93;;;5.63;;
48199;SDS011;33990;44.602;10.976;2023-05-28T00:37:23;6.72;;;6.03;;
48199;SDS011;33990;44.602;10.976;2023-05-28T00:39:51;6.80;;;5.22;;
48199;SDS011;33990;44.602;10.976;2023-05-28T00:42:19;7.50;;;6.18;;
48199;SDS011;33990;44.602;10.976;2023-05-28T00:44:47;6.95;;;5.63;;
48199;SDS011;33990;44.602;10.976;2023-05-28T00:47:15;8.13;;;5.22;;
48199;SDS011;33990;44.602;10.976;2023-05-28T00:49:42;7.07;;;5.35;;
48199;SDS011;33990;44.602;10.976;2023-05-28T00:52:09;9.15;;;5.38;;
48199;SDS011;33990;44.602;10.976;2023-05-28T00:54:37;7.53;;;5.80;;
48199;SDS011;33990;44.602;10.976;2023-05-28T00:57:05;6.50;;;5.72;;
48199;SDS011;33990;44.602;10.976;2023-05-28T00:59:33;7.85;;;6.20;;
48199;SDS011;33990;44.602;10.976;2023-05-28T01:02:01;7.60;;;5.45;;
48199;SDS011;33990;44.602;10.976;2023-05-28T01:04:28;6.20;;;5.43;;
48199;SDS011;33990;44.602;10.976;2023-05-28T01:06:58;7.45;;;5.78;;
48199;SDS011;33990;44.602;10.976;2023-05-28T01:09:27;6.00;;;5.38;;
48199;SDS011;33990;44.602;10.976;2023-05-28T01:11:54;7.40;;;5.82;;
48199;SDS011;33990;44.602;10.976;2023-05-28T01:14:23;6.13;;;5.07;;
48199;SDS011;33990;44.602;10.976;2023-05-28T01:16:52;7.07;;;5.35;;
48199;SDS011;33990;44.602;10.976;2023-05-28T01:19:21;6.82;;;6.13;;
48199;SDS011;33990;44.602;10.976;2023-05-28T01:22:04;6.50;;;5.15;;
48199;SDS011;33990;44.602;10.976;2023-05-28T01:24:32;6.93;;;5.10;;
48199;SDS011;33990;44.602;10.976;2023-05-28T01:27:03;7.43;;;5.35;;
48199;SDS011;33990;44.602;10.976;2023-05-28T01:29:31;6.43;;;5.32;;
48199;SDS011;33990;44.602;10.976;2023-05-28T01:32:00;7.40;;;5.72;;
48199;SDS011;33990;44.602;10.976;2023-05-28T01:34:29;7.03;;;5.40;;
48199;SDS011;33990;44.602;10.976;2023-05-28T01:36:57;5.93;;;5.32;;
48199;SDS011;33990;44.602;10.976;2023-05-28T01:39:30;5.80;;;5.20;;
48199;SDS011;33990;44.602;10.976;2023-05-28T01:42:06;5.78;;;4.53;;
48199;SDS011;33990;44.602;10.976;2023-05-28T01:44:35;6.43;;;5.22;;
48199;SDS011;33990;44.602;10.976;2023-05-28T01:47:03;6.78;;;5.60;;
48199;SDS011;33990;44.602;10.976;2023-05-28T01:49:31;7.70;;;5.70;;
48199;SDS011;33990;44.602;10.976;2023-05-28T01:52:01;7.38;;;5.90;;
48199;SDS011;33990;44.602;10.976;2023-05-28T01:54:29;8.15;;;5.78;;
48199;SDS011;33990;44.602;10.976;2023-05-28T01:56:57;7.72;;;5.85;;
48199;SDS011;33990;44.602;10.976;2023-05-28T01:59:24;7.50;;;5.93;;
48199;SDS011;33990;44.602;10.976;2023-05-28T02:01:52;6.55;;;5.60;;
48199;SDS011;33990;44.602;10.976;2023-05-28T02:04:20;7.05;;;5.97;;
48199;SDS011;33990;44.602;10.976;2023-05-28T02:06:47;6.57;;;5.65;;
48199;SDS011;33990;44.602;10.976;2023-05-28T02:09:15;7.18;;;5.85;;
48199;SDS011;33990;44.602;10.976;2023-05-28T02:11:42;8.40;;;6.78;;
48199;SDS011;33990;44.602;10.976;2023-05-28T02:14:11;7.45;;;6.35;;
48199;SDS011;33990;44.602;10.976;2023-05-28T02:16:46;6.47;;;5.40;;
48199;SDS011;33990;44.602;10.976;2023-05-28T02:19:19;6.38;;;5.50;;
48199;SDS011;33990;44.602;10.976;2023-05-28T02:21:47;6.65;;;5.68;;
48199;SDS011;33990;44.602;10.976;2023-05-28T02:24:14;7.10;;;6.20;;
48199;SDS011;33990;44.602;10.976;2023-05-28T02:26:42;6.43;;;5.57;;
48199;SDS011;33990;44.602;10.976;2023-05-28T02:29:09;9.52;;;6.07;;
48199;SDS011;33990;44.602;10.976;2023-05-28T02:31:36;7.70;;;5.75;;
48199;SDS011;33990;44.602;10.976;2023-05-28T02:34:04;6.70;;;5.45;;
48199;SDS011;33990;44.602;10.976;2023-05-28T02:36:31;7.55;;;5.95;;
48199;SDS011;33990;44.602;10.976;2023-05-28T02:39:00;7.00;;;5.75;;
48199;SDS011;33990;44.602;10.976;2023-05-28T02:41:28;7.05;;;6.00;;
48199;SDS011;33990;44.602;10.976;2023-05-28T02:43:56;7.75;;;5.68;;
48199;SDS011;33990;44.602;10.976;2023-05-28T02:46:23;7.07;;;5.80;;
48199;SDS011;33990;44.602;10.976;2023-05-28T02:48:51;6.63;;;5.55;;
48199;SDS011;33990;44.602;10.976;2023-05-28T02:51:19;7.35;;;6.10;;
48199;SDS011;33990;44.602;10.976;2023-05-28T02:53:54;7.47;;;6.20;;
48199;SDS011;33990;44.602;10.976;2023-05-28T02:56:23;6.43;;;4.90;;
48199;SDS011;33990;44.602;10.976;2023-05-28T02:58:51;7.47;;;6.35;;
48199;SDS011;33990;44.602;10.976;2023-05-28T03:01:20;8.73;;;6.00;;
48199;SDS011;33990;44.602;10.976;2023-05-28T03:03:48;6.60;;;5.55;;
48199;SDS011;33990;44.602;10.976;2023-05-28T03:06:17;6.97;;;5.38;;
48199;SDS011;33990;44.602;10.976;2023-05-28T03:08:47;7.18;;;5.53;;
48199;SDS011;33990;44.602;10.976;2023-05-28T03:11:15;6.68;;;5.47;;
48199;SDS011;33990;44.602;10.976;2023-05-28T03:13:43;6.28;;;5.20;;
48199;SDS011;33990;44.602;10.976;2023-05-28T03:16:10;6.15;;;5.55;;
48199;SDS011;33990;44.602;10.976;2023-05-28T03:18:38;5.90;;;5.30;;
48199;SDS011;33990;44.602;10.976;2023-05-28T03:21:07;6.32;;;5.50;;
48199;SDS011;33990;44.602;10.976;2023-05-28T03:23:36;7.93;;;6.05;;
48199;SDS011;33990;44.602;10.976;2023-05-28T03:26:27;7.28;;;5.40;;
48199;SDS011;33990;44.602;10.976;2023-05-28T03:28:55;6.65;;;5.95;;
48199;SDS011;33990;44.602;10.976;2023-05-28T03:31:27;7.00;;;5.80;;
48199;SDS011;33990;44.602;10.976;2023-05-28T03:33:58;6.75;;;5.55;;
48199;SDS011;33990;44.602;10.976;2023-05-28T03:36:26;6.40;;;5.57;;
48199;SDS011;33990;44.602;10.976;2023-05-28T03:38:53;11.05;;;6.28;;
48199;SDS011;33990;44.602;10.976;2023-05-28T03:41:24;6.97;;;5.07;;
48199;SDS011;33990;44.602;10.976;2023-05-28T03:43:53;7.13;;;5.57;;
48199;SDS011;33990;44.602;10.976;2023-05-28T03:46:20;6.00;;;5.20;;
48199;SDS011;33990;44.602;10.976;2023-05-28T03:48:48;6.70;;;5.60;;
48199;SDS011;33990;44.602;10.976;2023-05-28T03:51:15;7.93;;;5.72;;
48199;SDS011;33990;44.602;10.976;2023-05-28T03:53:43;6.43;;;5.32;;
48199;SDS011;33990;44.602;10.976;2023-05-28T03:56:11;7.00;;;6.10;;
48199;SDS011;33990;44.602;10.976;2023-05-28T03:58:39;6.53;;;5.75;;
48199;SDS011;33990;44.602;10.976;2023-05-28T04:01:06;7.70;;;5.35;;
48199;SDS011;33990;44.602;10.976;2023-05-28T04:03:35;6.18;;;5.47;;
48199;SDS011;33990;44.602;10.976;2023-05-28T04:06:02;5.85;;;5.25;;
48199;SDS011;33990;44.602;10.976;2023-05-28T04:08:30;5.63;;;4.90;;
48199;SDS011;33990;44.602;10.976;2023-05-28T04:10:57;8.38;;;6.25;;
48199;SDS011;33990;44.602;10.976;2023-05-28T04:13:25;6.55;;;5.90;;
48199;SDS011;33990;44.602;10.976;2023-05-28T04:15:53;6.55;;;5.88;;
48199;SDS011;33990;44.602;10.976;2023-05-28T04:18:21;6.55;;;5.50;;
48199;SDS011;33990;44.602;10.976;2023-05-28T04:20:48;7.65;;;5.85;;
48199;SDS011;33990;44.602;10.976;2023-05-28T04:23:16;6.90;;;5.78;;
48199;SDS011;33990;44.602;10.976;2023-05-28T04:25:43;7.00;;;5.47;;
48199;SDS011;33990;44.602;10.976;2023-05-28T04:28:11;7.78;;;5.80;;
48199;SDS011;33990;44.602;10.976;2023-05-28T04:30:38;6.30;;;5.45;;
48199;SDS011;33990;44.602;10.976;2023-05-28T04:33:06;6.70;;;5.88;;
48199;SDS011;33990;44.602;10.976;2023-05-28T04:35:33;6.40;;;5.72;;
48199;SDS011;33990;44.602;10.976;2023-05-28T04:38:01;6.70;;;5.47;;
48199;SDS011;33990;44.602;10.976;2023-05-28T04:40:28;6.80;;;6.07;;
48199;SDS011;33990;44.602;10.976;2023-05-28T04:42:56;7.00;;;5.50;;
48199;SDS011;33990;44.602;10.976;2023-05-28T04:45:26;7.50;;;5.70;;
48199;SDS011;33990;44.602;10.976;2023-05-28T04:47:54;6.07;;;5.40;;
48199;SDS011;33990;44.602;10.976;2023-05-28T04:50:21;6.80;;;6.05;;
48199;SDS011;33990;44.602;10.976;2023-05-28T04:52:50;7.20;;;6.50;;
48199;SDS011;33990;44.602;10.976;2023-05-28T04:55:18;6.32;;;5.32;;
48199;SDS011;33990;44.602;10.976;2023-05-28T04:57:45;6.47;;;5.15;;
48199;SDS011;33990;44.602;10.976;2023-05-28T05:00:14;6.68;;;6.00;;
48199;SDS011;33990;44.602;10.976;2023-05-28T05:02:41;6.07;;;5.47;;
48199;SDS011;33990;44.602;10.976;2023-05-28T05:05:09;6.88;;;5.90;;
48199;SDS011;33990;44.602;10.976;2023-05-28T05:07:38;7.85;;;6.00;;
48199;SDS011;33990;44.602;10.976;2023-05-28T05:10:09;7.15;;;6.45;;
48199;SDS011;33990;44.602;10.976;2023-05-28T05:12:37;7.05;;;5.82;;
48199;SDS011;33990;44.602;10.976;2023-05-28T05:15:05;7.55;;;5.95;;
48199;SDS011;33990;44.602;10.976;2023-05-28T05:17:33;7.13;;;5.80;;
48199;SDS011;33990;44.602;10.976;2023-05-28T05:20:01;6.95;;;6.05;;
48199;SDS011;33990;44.602;10.976;2023-05-28T05:22:33;7.00;;;6.30;;
48199;SDS011;33990;44.602;10.976;2023-05-28T05:25:01;7.88;;;6.28;;
48199;SDS011;33990;44.602;10.976;2023-05-28T05:27:29;6.53;;;5.65;;
48199;SDS011;33990;44.602;10.976;2023-05-28T05:29:58;6.93;;;5.63;;
48199;SDS011;33990;44.602;10.976;2023-05-28T05:32:26;7.32;;;6.53;;
48199;SDS011;33990;44.602;10.976;2023-05-28T05:34:53;6.75;;;5.63;;
48199;SDS011;33990;44.602;10.976;2023-05-28T05:37:59;6.72;;;6.07;;
48199;SDS011;33990;44.602;10.976;2023-05-28T05:40:45;7.22;;;6.10;;
48199;SDS011;33990;44.602;10.976;2023-05-28T05:43:33;6.45;;;5.60;;
48199;SDS011;33990;44.602;10.976;2023-05-28T05:46:01;11.10;;;6.43;;
48199;SDS011;33990;44.602;10.976;2023-05-28T05:48:28;8.85;;;5.63;;
48199;SDS011;33990;44.602;10.976;2023-05-28T05:50:56;7.65;;;6.50;;
48199;SDS011;33990;44.602;10.976;2023-05-28T05:53:26;7.13;;;5.95;;
48199;SDS011;33990;44.602;10.976;2023-05-28T05:55:54;7.95;;;5.50;;
48199;SDS011;33990;44.602;10.976;2023-05-28T05:58:22;6.93;;;5.65;;
48199;SDS011;33990;44.602;10.976;2023-05-28T06:00:49;6.70;;;5.95;;
48199;SDS011;33990;44.602;10.976;2023-05-28T06:03:17;6.35;;;5.22;;
48199;SDS011;33990;44.602;10.976;2023-05-28T06:05:56;6.93;;;5.82;;
48199;SDS011;33990;44.602;10.976;2023-05-28T06:08:43;6.90;;;5.80;;
48199;SDS011;33990;44.602;10.976;2023-05-28T06:11:20;8.90;;;6.10;;
48199;SDS011;33990;44.602;10.976;2023-05-28T06:13:49;6.80;;;5.85;;
48199;SDS011;33990;44.602;10.976;2023-05-28T06:16:18;6.32;;;5.72;;
48199;SDS011;33990;44.602;10.976;2023-05-28T06:18:47;6.38;;;5.07;;
48199;SDS011;33990;44.602;10.976;2023-05-28T06:21:14;7.72;;;5.95;;
48199;SDS011;33990;44.602;10.976;2023-05-28T06:23:42;7.85;;;6.65;;
48199;SDS011;33990;44.602;10.976;2023-05-28T06:26:10;9.98;;;7.35;;
48199;SDS011;33990;44.602;10.976;2023-05-28T06:28:37;7.22;;;6.38;;
48199;SDS011;33990;44.602;10.976;2023-05-28T06:31:05;7.35;;;6.57;;
48199;SDS011;33990;44.602;10.976;2023-05-28T06:33:32;6.35;;;5.65;;
48199;SDS011;33990;44.602;10.976;2023-05-28T06:35:59;7.35;;;5.93;;
48199;SDS011;33990;44.602;10.976;2023-05-28T06:38:28;7.07;;;5.65;;
48199;SDS011;33990;44.602;10.976;2023-05-28T06:40:55;7.32;;;6.22;;
48199;SDS011;33990;44.602;10.976;2023-05-28T06:43:26;8.20;;;6.40;;
48199;SDS011;33990;44.602;10.976;2023-05-28T06:46:07;7.95;;;5.75;;
48199;SDS011;33990;44.602;10.976;2023-05-28T06:48:35;8.13;;;6.15;;
48199;SDS011;33990;44.602;10.976;2023-05-28T06:51:03;7.30;;;6.07;;
48199;SDS011;33990;44.602;10.976;2023-05-28T06:53:31;7.10;;;6.35;;
48199;SDS011;33990;44.602;10.976;2023-05-28T06:55:59;7.18;;;6.03;;
48199;SDS011;33990;44.602;10.976;2023-05-28T06:58:41;8.23;;;6.20;;
48199;SDS011;33990;44.602;10.976;2023-05-28T07:01:23;8.68;;;6.10;;
48199;SDS011;33990;44.602;10.976;2023-05-28T07:03:53;7.70;;;6.13;;
48199;SDS011;33990;44.602;10.976;2023-05-28T07:06:34;6.95;;;5.55;;
48199;SDS011;33990;44.602;10.976;2023-05-28T07:09:01;7.15;;;5.50;;
48199;SDS011;33990;44.602;10.976;2023-05-28T07:11:29;8.32;;;6.22;;
48199;SDS011;33990;44.602;10.976;2023-05-28T07:13:56;6.43;;;5.43;;
48199;SDS011;33990;44.602;10.976;2023-05-28T07:16:25;6.72;;;5.50;;
48199;SDS011;33990;44.602;10.976;2023-05-28T07:18:53;7.05;;;5.00;;
48199;SDS011;33990;44.602;10.976;2023-05-28T07:21:20;6.78;;;5.65;;
48199;SDS011;33990;44.602;10.976;2023-05-28T07:23:48;8.73;;;6.43;;
48199;SDS011;33990;44.602;10.976;2023-05-28T07:26:15;6.55;;;5.25;;
48199;SDS011;33990;44.602;10.976;2023-05-28T07:28:44;8.65;;;6.57;;
48199;SDS011;33990;44.602;10.976;2023-05-28T07:31:11;6.00;;;5.40;;
48199;SDS011;33990;44.602;10.976;2023-05-28T07:33:39;7.38;;;5.80;;
48199;SDS011;33990;44.602;10.976;2023-05-28T07:36:07;7.43;;;6.65;;
48199;SDS011;33990;44.602;10.976;2023-05-28T07:38:36;8.45;;;6.13;;
48199;SDS011;33990;44.602;10.976;2023-05-28T07:41:04;7.13;;;5.93;;
48199;SDS011;33990;44.602;10.976;2023-05-28T07:43:37;6.20;;;5.57;;
48199;SDS011;33990;44.602;10.976;2023-05-28T07:46:11;9.70;;;6.20;;
48199;SDS011;33990;44.602;10.976;2023-05-28T07:48:45;6.75;;;5.68;;
48199;SDS011;33990;44.602;10.976;2023-05-28T07:51:30;7.63;;;6.28;;
48199;SDS011;33990;44.602;10.976;2023-05-28T07:54:10;7.65;;;5.85;;
48199;SDS011;33990;44.602;10.976;2023-05-28T07:56:39;7.10;;;5.70;;
48199;SDS011;33990;44.602;10.976;2023-05-28T07:59:12;8.55;;;6.15;;
48199;SDS011;33990;44.602;10.976;2023-05-28T08:01:43;8.10;;;7.28;;
48199;SDS011;33990;44.602;10.976;2023-05-28T08:04:11;8.02;;;6.18;;
48199;SDS011;33990;44.602;10.976;2023-05-28T08:06:39;7.30;;;6.47;;
48199;SDS011;33990;44.602;10.976;2023-05-28T08:09:10;6.78;;;6.05;;
48199;SDS011;33990;44.602;10.976;2023-05-28T08:11:40;6.72;;;6.03;;
48199;SDS011;33990;44.602;10.976;2023-05-28T08:14:07;6.63;;;5.93;;
48199;SDS011;33990;44.602;10.976;2023-05-28T08:16:36;7.35;;;6.13;;
48199;SDS011;33990;44.602;10.976;2023-05-28T08:19:06;6.10;;;5.45;;
48199;SDS011;33990;44.602;10.976;2023-05-28T08:21:34;6.03;;;5.10;;
48199;SDS011;33990;44.602;10.976;2023-05-28T08:24:05;7.03;;;5.78;;
48199;SDS011;33990;44.602;10.976;2023-05-28T08:26:33;8.45;;;5.97;;
48199;SDS011;33990;44.602;10.976;2023-05-28T08:29:00;6.63;;;5.53;;
48199;SDS011;33990;44.602;10.976;2023-05-28T08:31:31;6.85;;;6.18;;
48199;SDS011;33990;44.602;10.976;2023-05-28T08:34:20;6.45;;;5.78;;
48199;SDS011;33990;44.602;10.976;2023-05-28T08:36:47;6.85;;;6.15;;
48199;SDS011;33990;44.602;10.976;2023-05-28T08:39:22;7.60;;;5.85;;
48199;SDS011;33990;44.602;10.976;2023-05-28T08:41:51;7.45;;;6.10;;
48199;SDS011;33990;44.602;10.976;2023-05-28T08:44:18;7.35;;;6.35;;
48199;SDS011;33990;44.602;10.976;2023-05-28T08:46:47;7.15;;;6.05;;
48199;SDS011;33990;44.602;10.976;2023-05-28T08:49:38;8.00;;;6.78;;
48199;SDS011;33990;44.602;10.976;2023-05-28T08:52:09;8.02;;;6.65;;
48199;SDS011;33990;44.602;10.976;2023-05-28T08:54:40;8.73;;;6.80;;
48199;SDS011;33990;44.602;10.976;2023-05-28T08:57:09;9.05;;;6.82;;
48199;SDS011;33990;44.602;10.976;2023-05-28T08:59:51;9.65;;;7.50;;
48199;SDS011;33990;44.602;10.976;2023-05-28T09:02:26;7.80;;;6.93;;
48199;SDS011;33990;44.602;10.976;2023-05-28T09:04:53;7.40;;;6.70;;
48199;SDS011;33990;44.602;10.976;2023-05-28T09:07:25;6.90;;;6.20;;
48199;SDS011;33990;44.602;10.976;2023-05-28T09:09:57;7.93;;;7.13;;
48199;SDS011;33990;44.602;10.976;2023-05-28T09:12:30;7.43;;;6.13;;
48199;SDS011;33990;44.602;10.976;2023-05-28T09:15:01;7.20;;;6.43;;
48199;SDS011;33990;44.602;10.976;2023-05-28T09:17:37;7.38;;;6.15;;
48199;SDS011;33990;44.602;10.976;2023-05-28T09:20:16;7.85;;;7.00;;
48199;SDS011;33990;44.602;10.976;2023-05-28T09:22:44;9.95;;;7.63;;
48199;SDS011;33990;44.602;10.976;2023-05-28T09:25:30;8.57;;;7.78;;
48199;SDS011;33990;44.602;10.976;2023-05-28T09:28:13;9.82;;;7.60;;
48199;SDS011;33990;44.602;10.976;2023-05-28T09:30:40;9.10;;;8.20;;
48199;SDS011;33990;44.602;10.976;2023-05-28T09:33:08;9.48;;;7.55;;
48199;SDS011;33990;44.602;10.976;2023-05-28T09:35:36;12.43;;;8.60;;
48199;SDS011;33990;44.602;10.976;2023-05-28T09:38:07;11.50;;;8.15;;
48199;SDS011;33990;44.602;10.976;2023-05-28T09:40:40;9.13;;;7.50;;
48199;SDS011;33990;44.602;10.976;2023-05-28T09:45:38;8.75;;;6.95;;
48199;SDS011;33990;44.602;10.976;2023-05-28T09:48:05;8.25;;;7.45;;
48199;SDS011;33990;44.602;10.976;2023-05-28T09:50:32;10.20;;;7.45;;
48199;SDS011;33990;44.602;10.976;2023-05-28T09:53:00;9.55;;;8.38;;
48199;SDS011;33990;44.602;10.976;2023-05-28T09:55:30;9.60;;;7.85;;
48199;SDS011;33990;44.602;10.976;2023-05-28T09:58:03;8.75;;;7.85;;
48199;SDS011;33990;44.602;10.976;2023-05-28T10:00:35;9.10;;;8.13;;
48199;SDS011;33990;44.602;10.976;2023-05-28T10:05:38;11.52;;;8.27;;
48199;SDS011;33990;44.602;10.976;2023-05-28T10:08:10;10.15;;;8.60;;
48199;SDS011;33990;44.602;10.976;2023-05-28T10:10:40;8.70;;;7.28;;
48199;SDS011;33990;44.602;10.976;2023-05-28T10:13:09;10.50;;;8.13;;
48199;SDS011;33990;44.602;10.976;2023-05-28T10:15:38;9.00;;;7.38;;
48199;SDS011;33990;44.602;10.976;2023-05-28T10:18:06;10.57;;;8.20;;
48199;SDS011;33990;44.602;10.976;2023-05-28T10:20:34;9.73;;;7.60;;
48199;SDS011;33990;44.602;10.976;2023-05-28T10:23:03;8.20;;;7.40;;
48199;SDS011;33990;44.602;10.976;2023-05-28T10:25:31;11.00;;;8.18;;
48199;SDS011;33990;44.602;10.976;2023-05-28T10:27:59;9.25;;;7.32;;
48199;SDS011;33990;44.602;10.976;2023-05-28T10:30:33;8.30;;;7.45;;
48199;SDS011;33990;44.602;10.976;2023-05-28T10:33:03;9.00;;;7.47;;
48199;SDS011;33990;44.602;10.976;2023-05-28T10:35:53;8.75;;;7.70;;
48199;SDS011;33990;44.602;10.976;2023-05-28T10:38:22;7.93;;;7.13;;
48199;SDS011;33990;44.602;10.976;2023-05-28T10:40:50;7.93;;;6.70;;
48199;SDS011;33990;44.602;10.976;2023-05-28T10:48:41;9.52;;;7.53;;
48199;SDS011;33990;44.602;10.976;2023-05-28T10:51:09;9.30;;;7.97;;
48199;SDS011;33990;44.602;10.976;2023-05-28T10:53:37;8.60;;;7.53;;
48199;SDS011;33990;44.602;10.976;2023-05-28T10:56:05;8.23;;;7.10;;
48199;SDS011;33990;44.602;10.976;2023-05-28T10:58:35;8.30;;;7.40;;
48199;SDS011;33990;44.602;10.976;2023-05-28T11:03:55;8.70;;;7.30;;
48199;SDS011;33990;44.602;10.976;2023-05-28T11:06:24;7.07;;;6.38;;
48199;SDS011;33990;44.602;10.976;2023-05-28T11:08:55;8.65;;;7.00;;
48199;SDS011;33990;44.602;10.976;2023-05-28T11:11:23;7.43;;;6.57;;
48199;SDS011;33990;44.602;10.976;2023-05-28T11:13:54;8.52;;;6.85;;
48199;SDS011;33990;44.602;10.976;2023-05-28T11:16:21;7.78;;;6.95;;
48199;SDS011;33990;44.602;10.976;2023-05-28T11:19:05;7.47;;;6.78;;
48199;SDS011;33990;44.602;10.976;2023-05-28T11:21:54;7.80;;;6.88;;
48199;SDS011;33990;44.602;10.976;2023-05-28T11:24:25;8.43;;;6.75;;
48199;SDS011;33990;44.602;10.976;2023-05-28T11:26:52;7.72;;;6.93;;
48199;SDS011;33990;44.602;10.976;2023-05-28T11:29:21;8.18;;;7.20;;
48199;SDS011;33990;44.602;10.976;2023-05-28T11:31:49;7.43;;;6.63;;
48199;SDS011;33990;44.602;10.976;2023-05-28T11:34:19;7.47;;;6.43;;
48199;SDS011;33990;44.602;10.976;2023-05-28T11:36:47;6.95;;;6.25;;
48199;SDS011;33990;44.602;10.976;2023-05-28T11:39:14;7.10;;;6.40;;
48199;SDS011;33990;44.602;10.976;2023-05-28T11:41:42;7.47;;;6.57;;
48199;SDS011;33990;44.602;10.976;2023-05-28T11:44:27;8.00;;;6.47;;
48199;SDS011;33990;44.602;10.976;2023-05-28T11:46:55;7.90;;;7.18;;
48199;SDS011;33990;44.602;10.976;2023-05-28T11:49:23;8.93;;;7.60;;
48199;SDS011;33990;44.602;10.976;2023-05-28T11:51:51;8.63;;;7.40;;
48199;SDS011;33990;44.602;10.976;2023-05-28T11:54:20;8.05;;;7.25;;
48199;SDS011;33990;44.602;10.976;2023-05-28T11:56:48;8.00;;;6.72;;
48199;SDS011;33990;44.602;10.976;2023-05-28T11:59:16;7.00;;;6.15;;
48199;SDS011;33990;44.602;10.976;2023-05-28T12:01:44;8.32;;;6.70;;
48199;SDS011;33990;44.602;10.976;2023-05-28T12:04:12;8.80;;;7.20;;
48199;SDS011;33990;44.602;10.976;2023-05-28T12:06:49;7.53;;;6.65;;
48199;SDS011;33990;44.602;10.976;2023-05-28T12:09:18;7.10;;;6.40;;
48199;SDS011;33990;44.602;10.976;2023-05-28T12:12:09;8.00;;;6.80;;
48199;SDS011;33990;44.602;10.976;2023-05-28T12:14:38;7.47;;;6.72;;
48199;SDS011;33990;44.602;10.976;2023-05-28T12:17:07;8.90;;;7.07;;
48199;SDS011;33990;44.602;10.976;2023-05-28T12:19:35;7.43;;;6.25;;
48199;SDS011;33990;44.602;10.976;2023-05-28T12:22:05;7.60;;;5.85;;
48199;SDS011;33990;44.602;10.976;2023-05-28T12:24:47;7.40;;;6.63;;
48199;SDS011;33990;44.602;10.976;2023-05-28T12:27:16;8.30;;;7.40;;
48199;SDS011;33990;44.602;10.976;2023-05-28T12:29:44;7.32;;;6.63;;
48199;SDS011;33990;44.602;10.976;2023-05-28T12:32:12;6.72;;;6.03;;
48199;SDS011;33990;44.602;10.976;2023-05-28T12:34:40;8.80;;;7.45;;
48199;SDS011;33990;44.602;10.976;2023-05-28T12:37:08;7.05;;;6.35;;
48199;SDS011;33990;44.602;10.976;2023-05-28T12:39:36;9.70;;;7.43;;
48199;SDS011;33990;44.602;10.976;2023-05-28T12:42:04;7.97;;;7.18;;
48199;SDS011;33990;44.602;10.976;2023-05-28T12:44:32;8.25;;;6.55;;
48199;SDS011;33990;44.602;10.976;2023-05-28T12:46:59;7.32;;;6.45;;
48199;SDS011;33990;44.602;10.976;2023-05-28T12:49:26;7.10;;;6.40;;
48199;SDS011;33990;44.602;10.976;2023-05-28T12:51:54;7.20;;;6.47;;
48199;SDS011;33990;44.602;10.976;2023-05-28T12:54:21;7.63;;;6.88;;
48199;SDS011;33990;44.602;10.976;2023-05-28T12:56:48;7.18;;;6.47;;
48199;SDS011;33990;44.602;10.976;2023-05-28T13:01:50;7.32;;;6.57;;
48199;SDS011;33990;44.602;10.976;2023-05-28T13:04:18;7.22;;;6.15;;
48199;SDS011;33990;44.602;10.976;2023-05-28T13:06:45;7.32;;;6.63;;
48199;SDS011;33990;44.602;10.976;2023-05-28T13:09:14;7.20;;;6.50;;
48199;SDS011;33990;44.602;10.976;2023-05-28T13:11:44;7.53;;;6.55;;
48199;SDS011;33990;44.602;10.976;2023-05-28T13:14:12;7.72;;;6.60;;
48199;SDS011;33990;44.602;10.976;2023-05-28T13:16:39;7.38;;;6.60;;
48199;SDS011;33990;44.602;10.976;2023-05-28T13:19:07;6.28;;;5.68;;
48199;SDS011;33990;44.602;10.976;2023-05-28T13:21:34;7.38;;;6.68;;
48199;SDS011;33990;44.602;10.976;2023-05-28T13:24:02;6.95;;;5.80;;
48199;SDS011;33990;44.602;10.976;2023-05-28T13:26:32;7.47;;;6.78;;
48199;SDS011;33990;44.602;10.976;2023-05-28T13:29:04;7.15;;;6.45;;
48199;SDS011;33990;44.602;10.976;2023-05-28T13:31:32;6.60;;;5.90;;
48199;SDS011;33990;44.602;10.976;2023-05-28T13:34:01;6.45;;;5.85;;
48199;SDS011;33990;44.602;10.976;2023-05-28T13:36:29;8.02;;;7.22;;
48199;SDS011;33990;44.602;10.976;2023-05-28T13:38:57;7.00;;;6.30;;
48199;SDS011;33990;44.602;10.976;2023-05-28T13:41:25;7.75;;;6.28;;
48199;SDS011;33990;44.602;10.976;2023-05-28T13:43:53;7.82;;;6.32;;
48199;SDS011;33990;44.602;10.976;2023-05-28T13:46:21;8.00;;;6.75;;
48199;SDS011;33990;44.602;10.976;2023-05-28T13:48:49;7.72;;;6.93;;
48199;SDS011;33990;44.602;10.976;2023-05-28T13:51:17;7.47;;;6.57;;
48199;SDS011;33990;44.602;10.976;2023-05-28T13:53:45;6.82;;;6.00;;
48199;SDS011;33990;44.602;10.976;2023-05-28T13:56:14;6.72;;;6.03;;
48199;SDS011;33990;44.602;10.976;2023-05-28T13:58:42;7.28;;;6.35;;
48199;SDS011;33990;44.602;10.976;2023-05-28T14:01:10;7.07;;;6.15;;
48199;SDS011;33990;44.602;10.976;2023-05-28T14:03:39;8.68;;;7.38;;
48199;SDS011;33990;44.602;10.976;2023-05-28T14:06:07;6.72;;;6.03;;
48199;SDS011;33990;44.602;10.976;2023-05-28T14:08:34;8.90;;;6.68;;
48199;SDS011;33990;44.602;10.976;2023-05-28T14:11:01;7.35;;;6.05;;
48199;SDS011;33990;44.602;10.976;2023-05-28T14:13:29;7.28;;;6.57;;
48199;SDS011;33990;44.602;10.976;2023-05-28T14:15:58;7.25;;;6.32;;
48199;SDS011;33990;44.602;10.976;2023-05-28T14:18:26;8.02;;;6.70;;
48199;SDS011;33990;44.602;10.976;2023-05-28T14:20:54;6.35;;;5.75;;
48199;SDS011;33990;44.602;10.976;2023-05-28T14:23:23;6.95;;;6.25;;
48199;SDS011;33990;44.602;10.976;2023-05-28T14:25:50;6.57;;;5.97;;
48199;SDS011;33990;44.602;10.976;2023-05-28T14:28:18;6.68;;;6.05;;
48199;SDS011;33990;44.602;10.976;2023-05-28T14:30:45;6.78;;;6.00;;
48199;SDS011;33990;44.602;10.976;2023-05-28T14:33:12;6.72;;;6.05;;
48199;SDS011;33990;44.602;10.976;2023-05-28T14:35:40;7.43;;;6.22;;
48199;SDS011;33990;44.602;10.976;2023-05-28T14:38:07;6.30;;;5.70;;
48199;SDS011;33990;44.602;10.976;2023-05-28T14:40:34;7.20;;;6.45;;
48199;SDS011;33990;44.602;10.976;2023-05-28T14:43:02;7.10;;;6.28;;
48199;SDS011;33990;44.602;10.976;2023-05-28T14:45:29;7.63;;;6.55;;
48199;SDS011;33990;44.602;10.976;2023-05-28T14:47:57;7.05;;;6.32;;
48199;SDS011;33990;44.602;10.976;2023-05-28T14:50:24;7.10;;;6.40;;
48199;SDS011;33990;44.602;10.976;2023-05-28T14:52:51;6.95;;;6.13;;
48199;SDS011;33990;44.602;10.976;2023-05-28T14:55:19;7.07;;;6.38;;
48199;SDS011;33990;44.602;10.976;2023-05-28T14:57:47;7.03;;;5.88;;
48199;SDS011;33990;44.602;10.976;2023-05-28T15:00:15;6.97;;;5.95;;
48199;SDS011;33990;44.602;10.976;2023-05-28T15:02:42;6.97;;;6.30;;